sensor_id;sensor_type;location;lat;lon;timestamp;P1;durP1;ratioP1;P2;durP2;ratioP2
56567;SDS011;42456;49.956;20.004;2022-12-08T00:01:21;7.00;;;3.20;;
56567;SDS011;42456;49.956;20.004;2022-12-08T00:03:50;6.43;;;3.10;;
56567;SDS011;42456;49.956;20.004;2022-12-08T00:06:24;6.10;;;2.90;;
56567;SDS011;42456;49.956;20.004;2022-12-08T00:09:14;5.87;;;2.60;;
56567;SDS011;42456;49.956;20.004;2022-12-08T00:11:52;4.40;;;2.70;;
56567;SDS011;42456;49.956;20.004;2022-12-08T00:14:24;5.63;;;2.90;;
56567;SDS011;42456;49.956;20.004;2022-12-08T00:16:53;6.67;;;2.87;;
56567;SDS011;42456;49.956;20.004;2022-12-08T00:19:21;5.50;;;2.97;;
56567;SDS011;42456;49.956;20.004;2022-12-08T00:21:48;4.87;;;2.80;;
56567;SDS011;42456;49.956;20.004;2022-12-08T00:24:16;3.73;;;2.43;;
56567;SDS011;42456;49.956;20.004;2022-12-08T00:26:43;4.70;;;2.80;;
56567;SDS011;42456;49.956;20.004;2022-12-08T00:29:09;5.93;;;3.03;;
56567;SDS011;42456;49.956;20.004;2022-12-08T00:31:36;4.93;;;2.87;;
56567;SDS011;42456;49.956;20.004;2022-12-08T00:34:02;5.30;;;2.80;;
56567;SDS011;42456;49.956;20.004;2022-12-08T00:36:29;5.30;;;2.70;;
56567;SDS011;42456;49.956;20.004;2022-12-08T00:38:56;4.73;;;2.60;;
56567;SDS011;42456;49.956;20.004;2022-12-08T00:41:23;7.43;;;3.00;;
56567;SDS011;42456;49.956;20.004;2022-12-08T00:44:06;6.53;;;2.90;;
56567;SDS011;42456;49.956;20.004;2022-12-08T00:46:33;6.57;;;2.80;;
56567;SDS011;42456;49.956;20.004;2022-12-08T00:49:00;4.87;;;2.53;;
56567;SDS011;42456;49.956;20.004;2022-12-08T00:51:28;6.57;;;2.97;;
56567;SDS011;42456;49.956;20.004;2022-12-08T00:53:54;6.47;;;3.00;;
56567;SDS011;42456;49.956;20.004;2022-12-08T00:56:21;5.33;;;3.00;;
56567;SDS011;42456;49.956;20.004;2022-12-08T00:58:48;5.97;;;2.90;;
56567;SDS011;42456;49.956;20.004;2022-12-08T01:01:14;5.50;;;3.03;;
56567;SDS011;42456;49.956;20.004;2022-12-08T01:03:41;5.07;;;2.73;;
56567;SDS011;42456;49.956;20.004;2022-12-08T01:06:08;6.27;;;2.60;;
56567;SDS011;42456;49.956;20.004;2022-12-08T01:08:35;6.90;;;2.90;;
56567;SDS011;42456;49.956;20.004;2022-12-08T01:11:09;6.80;;;3.07;;
56567;SDS011;42456;49.956;20.004;2022-12-08T01:13:34;5.73;;;3.23;;
56567;SDS011;42456;49.956;20.004;2022-12-08T01:16:00;6.53;;;2.77;;
56567;SDS011;42456;49.956;20.004;2022-12-08T01:18:27;5.80;;;3.03;;
56567;SDS011;42456;49.956;20.004;2022-12-08T01:20:54;4.83;;;2.70;;
56567;SDS011;42456;49.956;20.004;2022-12-08T01:23:20;5.90;;;3.00;;
56567;SDS011;42456;49.956;20.004;2022-12-08T01:25:46;5.07;;;2.63;;
56567;SDS011;42456;49.956;20.004;2022-12-08T01:28:13;6.03;;;3.33;;
56567;SDS011;42456;49.956;20.004;2022-12-08T01:30:40;6.30;;;3.10;;
56567;SDS011;42456;49.956;20.004;2022-12-08T01:33:07;6.33;;;3.07;;
56567;SDS011;42456;49.956;20.004;2022-12-08T01:35:33;5.87;;;2.90;;
56567;SDS011;42456;49.956;20.004;2022-12-08T01:37:59;5.53;;;3.03;;
56567;SDS011;42456;49.956;20.004;2022-12-08T01:40:26;4.60;;;2.87;;
56567;SDS011;42456;49.956;20.004;2022-12-08T01:42:52;5.90;;;2.80;;
56567;SDS011;42456;49.956;20.004;2022-12-08T01:45:22;7.17;;;3.30;;
56567;SDS011;42456;49.956;20.004;2022-12-08T01:47:56;6.77;;;3.37;;
56567;SDS011;42456;49.956;20.004;2022-12-08T01:50:26;6.47;;;3.27;;
56567;SDS011;42456;49.956;20.004;2022-12-08T01:52:56;6.93;;;3.00;;
56567;SDS011;42456;49.956;20.004;2022-12-08T01:55:30;7.43;;;3.33;;
56567;SDS011;42456;49.956;20.004;2022-12-08T01:58:35;5.10;;;2.90;;
56567;SDS011;42456;49.956;20.004;2022-12-08T02:00:43;6.30;;;3.07;;
56567;SDS011;42456;49.956;20.004;2022-12-08T02:03:13;5.87;;;2.80;;
56567;SDS011;42456;49.956;20.004;2022-12-08T02:05:44;6.77;;;3.20;;
56567;SDS011;42456;49.956;20.004;2022-12-08T02:08:12;5.73;;;3.20;;
56567;SDS011;42456;49.956;20.004;2022-12-08T02:10:39;5.03;;;3.00;;
56567;SDS011;42456;49.956;20.004;2022-12-08T02:13:13;5.40;;;2.90;;
56567;SDS011;42456;49.956;20.004;2022-12-08T02:21:25;7.87;;;3.30;;
56567;SDS011;42456;49.956;20.004;2022-12-08T02:30:04;5.47;;;2.70;;
56567;SDS011;42456;49.956;20.004;2022-12-08T02:41:03;5.13;;;3.00;;
56567;SDS011;42456;49.956;20.004;2022-12-08T02:43:44;4.70;;;2.83;;
56567;SDS011;42456;49.956;20.004;2022-12-08T02:46:22;6.30;;;3.13;;
56567;SDS011;42456;49.956;20.004;2022-12-08T02:48:55;5.87;;;2.63;;
56567;SDS011;42456;49.956;20.004;2022-12-08T02:51:22;5.43;;;3.03;;
56567;SDS011;42456;49.956;20.004;2022-12-08T02:53:48;5.93;;;3.20;;
56567;SDS011;42456;49.956;20.004;2022-12-08T02:59:17;6.30;;;3.63;;
56567;SDS011;42456;49.956;20.004;2022-12-08T03:01:56;6.33;;;3.13;;
56567;SDS011;42456;49.956;20.004;2022-12-08T03:13:04;5.93;;;2.70;;
56567;SDS011;42456;49.956;20.004;2022-12-08T03:15:30;5.83;;;3.30;;
56567;SDS011;42456;49.956;20.004;2022-12-08T03:17:59;7.07;;;3.47;;
56567;SDS011;42456;49.956;20.004;2022-12-08T03:20:26;6.73;;;3.67;;
56567;SDS011;42456;49.956;20.004;2022-12-08T03:22:54;6.37;;;3.10;;
56567;SDS011;42456;49.956;20.004;2022-12-08T03:25:24;5.10;;;2.67;;
56567;SDS011;42456;49.956;20.004;2022-12-08T03:27:54;4.20;;;2.73;;
56567;SDS011;42456;49.956;20.004;2022-12-08T03:30:21;6.77;;;3.13;;
56567;SDS011;42456;49.956;20.004;2022-12-08T03:35:29;5.30;;;3.13;;
56567;SDS011;42456;49.956;20.004;2022-12-08T03:38:05;5.57;;;3.10;;
56567;SDS011;42456;49.956;20.004;2022-12-08T03:40:35;8.00;;;3.63;;
56567;SDS011;42456;49.956;20.004;2022-12-08T03:43:02;4.17;;;2.83;;
56567;SDS011;42456;49.956;20.004;2022-12-08T03:45:29;7.00;;;3.57;;
56567;SDS011;42456;49.956;20.004;2022-12-08T03:47:56;7.37;;;3.73;;
56567;SDS011;42456;49.956;20.004;2022-12-08T03:50:22;9.73;;;4.07;;
56567;SDS011;42456;49.956;20.004;2022-12-08T03:52:49;10.93;;;3.90;;
56567;SDS011;42456;49.956;20.004;2022-12-08T03:55:15;10.67;;;4.17;;
56567;SDS011;42456;49.956;20.004;2022-12-08T03:57:42;9.07;;;4.00;;
56567;SDS011;42456;49.956;20.004;2022-12-08T04:00:10;8.10;;;3.87;;
56567;SDS011;42456;49.956;20.004;2022-12-08T04:02:39;9.07;;;4.50;;
56567;SDS011;42456;49.956;20.004;2022-12-08T04:05:06;11.00;;;5.20;;
56567;SDS011;42456;49.956;20.004;2022-12-08T04:07:32;10.20;;;4.47;;
56567;SDS011;42456;49.956;20.004;2022-12-08T04:09:59;8.07;;;4.00;;
56567;SDS011;42456;49.956;20.004;2022-12-08T04:12:25;6.40;;;3.67;;
56567;SDS011;42456;49.956;20.004;2022-12-08T04:14:51;5.30;;;3.33;;
56567;SDS011;42456;49.956;20.004;2022-12-08T04:17:18;6.93;;;3.30;;
56567;SDS011;42456;49.956;20.004;2022-12-08T04:19:44;5.87;;;2.90;;
56567;SDS011;42456;49.956;20.004;2022-12-08T04:22:10;5.60;;;3.17;;
56567;SDS011;42456;49.956;20.004;2022-12-08T04:24:36;6.80;;;3.10;;
56567;SDS011;42456;49.956;20.004;2022-12-08T04:27:03;5.53;;;2.93;;
56567;SDS011;42456;49.956;20.004;2022-12-08T04:29:29;3.70;;;2.70;;
56567;SDS011;42456;49.956;20.004;2022-12-08T04:31:55;5.60;;;3.10;;
56567;SDS011;42456;49.956;20.004;2022-12-08T04:34:22;7.07;;;3.43;;
56567;SDS011;42456;49.956;20.004;2022-12-08T04:36:48;7.13;;;3.30;;
56567;SDS011;42456;49.956;20.004;2022-12-08T04:39:15;6.20;;;3.27;;
56567;SDS011;42456;49.956;20.004;2022-12-08T04:41:41;7.20;;;3.43;;
56567;SDS011;42456;49.956;20.004;2022-12-08T04:44:07;5.13;;;3.07;;
56567;SDS011;42456;49.956;20.004;2022-12-08T04:46:34;6.70;;;3.40;;
56567;SDS011;42456;49.956;20.004;2022-12-08T04:49:00;6.13;;;2.90;;
56567;SDS011;42456;49.956;20.004;2022-12-08T04:51:26;5.73;;;3.27;;
56567;SDS011;42456;49.956;20.004;2022-12-08T04:53:53;6.87;;;3.40;;
56567;SDS011;42456;49.956;20.004;2022-12-08T04:56:19;5.97;;;3.20;;
56567;SDS011;42456;49.956;20.004;2022-12-08T04:58:45;5.00;;;3.37;;
56567;SDS011;42456;49.956;20.004;2022-12-08T05:01:12;7.10;;;3.50;;
56567;SDS011;42456;49.956;20.004;2022-12-08T05:03:38;6.83;;;3.10;;
56567;SDS011;42456;49.956;20.004;2022-12-08T05:06:05;7.83;;;3.70;;
56567;SDS011;42456;49.956;20.004;2022-12-08T05:08:31;8.50;;;3.50;;
56567;SDS011;42456;49.956;20.004;2022-12-08T05:11:01;8.30;;;3.67;;
56567;SDS011;42456;49.956;20.004;2022-12-08T05:13:30;11.53;;;4.90;;
56567;SDS011;42456;49.956;20.004;2022-12-08T05:18:39;11.83;;;5.27;;
56567;SDS011;42456;49.956;20.004;2022-12-08T05:21:06;10.20;;;4.63;;
56567;SDS011;42456;49.956;20.004;2022-12-08T05:23:34;11.33;;;5.17;;
56567;SDS011;42456;49.956;20.004;2022-12-08T05:26:00;8.63;;;3.70;;
56567;SDS011;42456;49.956;20.004;2022-12-08T05:28:27;7.90;;;4.23;;
56567;SDS011;42456;49.956;20.004;2022-12-08T05:30:53;8.03;;;3.93;;
56567;SDS011;42456;49.956;20.004;2022-12-08T05:33:19;6.47;;;3.33;;
56567;SDS011;42456;49.956;20.004;2022-12-08T05:35:46;9.67;;;4.40;;
56567;SDS011;42456;49.956;20.004;2022-12-08T05:38:12;8.13;;;3.73;;
56567;SDS011;42456;49.956;20.004;2022-12-08T05:40:39;5.70;;;3.40;;
56567;SDS011;42456;49.956;20.004;2022-12-08T05:43:08;7.73;;;3.80;;
56567;SDS011;42456;49.956;20.004;2022-12-08T05:45:35;8.53;;;3.80;;
56567;SDS011;42456;49.956;20.004;2022-12-08T05:48:01;7.20;;;3.47;;
56567;SDS011;42456;49.956;20.004;2022-12-08T05:50:28;8.37;;;3.90;;
56567;SDS011;42456;49.956;20.004;2022-12-08T05:52:54;7.77;;;3.80;;
56567;SDS011;42456;49.956;20.004;2022-12-08T05:55:20;9.13;;;4.13;;
56567;SDS011;42456;49.956;20.004;2022-12-08T05:57:47;8.77;;;4.43;;
56567;SDS011;42456;49.956;20.004;2022-12-08T06:00:13;10.43;;;4.53;;
56567;SDS011;42456;49.956;20.004;2022-12-08T06:02:40;10.67;;;4.93;;
56567;SDS011;42456;49.956;20.004;2022-12-08T06:05:06;11.20;;;5.07;;
56567;SDS011;42456;49.956;20.004;2022-12-08T06:07:33;11.73;;;5.63;;
56567;SDS011;42456;49.956;20.004;2022-12-08T06:09:59;11.50;;;5.50;;
56567;SDS011;42456;49.956;20.004;2022-12-08T06:12:25;12.80;;;5.50;;
56567;SDS011;42456;49.956;20.004;2022-12-08T06:14:52;10.90;;;5.20;;
56567;SDS011;42456;49.956;20.004;2022-12-08T06:17:18;11.10;;;4.70;;
56567;SDS011;42456;49.956;20.004;2022-12-08T06:19:44;11.70;;;4.83;;
56567;SDS011;42456;49.956;20.004;2022-12-08T06:22:11;13.30;;;5.63;;
56567;SDS011;42456;49.956;20.004;2022-12-08T06:24:37;11.67;;;5.60;;
56567;SDS011;42456;49.956;20.004;2022-12-08T06:27:03;12.97;;;5.17;;
56567;SDS011;42456;49.956;20.004;2022-12-08T06:29:30;14.23;;;5.23;;
56567;SDS011;42456;49.956;20.004;2022-12-08T06:31:56;13.77;;;5.40;;
56567;SDS011;42456;49.956;20.004;2022-12-08T06:34:22;13.07;;;4.80;;
56567;SDS011;42456;49.956;20.004;2022-12-08T06:36:49;15.37;;;5.90;;
56567;SDS011;42456;49.956;20.004;2022-12-08T06:39:15;13.30;;;5.93;;
56567;SDS011;42456;49.956;20.004;2022-12-08T06:41:42;12.97;;;5.47;;
56567;SDS011;42456;49.956;20.004;2022-12-08T06:44:22;16.40;;;7.40;;
56567;SDS011;42456;49.956;20.004;2022-12-08T06:46:48;15.27;;;6.57;;
56567;SDS011;42456;49.956;20.004;2022-12-08T06:49:14;13.93;;;6.17;;
56567;SDS011;42456;49.956;20.004;2022-12-08T06:51:41;12.83;;;5.50;;
56567;SDS011;42456;49.956;20.004;2022-12-08T06:54:07;15.40;;;6.00;;
56567;SDS011;42456;49.956;20.004;2022-12-08T06:56:33;14.53;;;5.70;;
56567;SDS011;42456;49.956;20.004;2022-12-08T06:59:00;13.37;;;5.37;;
56567;SDS011;42456;49.956;20.004;2022-12-08T07:01:28;13.47;;;5.87;;
56567;SDS011;42456;49.956;20.004;2022-12-08T07:03:54;8.77;;;5.17;;
56567;SDS011;42456;49.956;20.004;2022-12-08T07:06:21;14.10;;;5.20;;
56567;SDS011;42456;49.956;20.004;2022-12-08T07:08:49;13.10;;;5.77;;
56567;SDS011;42456;49.956;20.004;2022-12-08T07:11:16;11.90;;;5.27;;
56567;SDS011;42456;49.956;20.004;2022-12-08T07:13:43;12.57;;;5.33;;
56567;SDS011;42456;49.956;20.004;2022-12-08T07:16:10;11.80;;;5.10;;
56567;SDS011;42456;49.956;20.004;2022-12-08T07:18:37;13.13;;;5.63;;
56567;SDS011;42456;49.956;20.004;2022-12-08T07:21:08;13.23;;;5.53;;
56567;SDS011;42456;49.956;20.004;2022-12-08T07:23:36;13.73;;;5.80;;
56567;SDS011;42456;49.956;20.004;2022-12-08T07:26:04;11.90;;;5.53;;
56567;SDS011;42456;49.956;20.004;2022-12-08T07:28:33;14.63;;;6.97;;
56567;SDS011;42456;49.956;20.004;2022-12-08T07:31:01;27.23;;;12.03;;
56567;SDS011;42456;49.956;20.004;2022-12-08T07:33:27;28.23;;;13.20;;
56567;SDS011;42456;49.956;20.004;2022-12-08T07:35:59;21.70;;;10.40;;
56567;SDS011;42456;49.956;20.004;2022-12-08T07:38:25;20.00;;;9.70;;
56567;SDS011;42456;49.956;20.004;2022-12-08T07:40:52;19.17;;;8.63;;
56567;SDS011;42456;49.956;20.004;2022-12-08T07:43:19;16.23;;;7.90;;
56567;SDS011;42456;49.956;20.004;2022-12-08T07:45:46;14.87;;;7.23;;
56567;SDS011;42456;49.956;20.004;2022-12-08T07:48:14;16.30;;;7.30;;
56567;SDS011;42456;49.956;20.004;2022-12-08T07:50:41;14.60;;;7.27;;
56567;SDS011;42456;49.956;20.004;2022-12-08T07:53:07;13.93;;;6.77;;
56567;SDS011;42456;49.956;20.004;2022-12-08T07:55:37;14.20;;;7.03;;
56567;SDS011;42456;49.956;20.004;2022-12-08T07:58:06;12.10;;;6.20;;
56567;SDS011;42456;49.956;20.004;2022-12-08T08:00:33;14.10;;;6.70;;
56567;SDS011;42456;49.956;20.004;2022-12-08T08:03:00;12.77;;;6.20;;
56567;SDS011;42456;49.956;20.004;2022-12-08T08:05:27;14.87;;;6.50;;
56567;SDS011;42456;49.956;20.004;2022-12-08T08:07:54;12.70;;;6.43;;
56567;SDS011;42456;49.956;20.004;2022-12-08T08:10:20;13.57;;;6.50;;
56567;SDS011;42456;49.956;20.004;2022-12-08T08:12:46;14.23;;;6.33;;
56567;SDS011;42456;49.956;20.004;2022-12-08T08:15:12;14.43;;;6.33;;
56567;SDS011;42456;49.956;20.004;2022-12-08T08:17:39;13.63;;;6.37;;
56567;SDS011;42456;49.956;20.004;2022-12-08T08:20:05;16.43;;;7.43;;
56567;SDS011;42456;49.956;20.004;2022-12-08T08:22:33;14.73;;;7.03;;
56567;SDS011;42456;49.956;20.004;2022-12-08T08:25:01;12.17;;;5.97;;
56567;SDS011;42456;49.956;20.004;2022-12-08T08:27:28;13.47;;;6.50;;
56567;SDS011;42456;49.956;20.004;2022-12-08T08:29:54;15.63;;;6.73;;
56567;SDS011;42456;49.956;20.004;2022-12-08T08:32:20;13.47;;;6.57;;
56567;SDS011;42456;49.956;20.004;2022-12-08T08:34:47;16.07;;;6.83;;
56567;SDS011;42456;49.956;20.004;2022-12-08T08:37:13;15.27;;;6.83;;
56567;SDS011;42456;49.956;20.004;2022-12-08T08:39:40;13.87;;;6.70;;
56567;SDS011;42456;49.956;20.004;2022-12-08T08:42:07;14.07;;;6.20;;
56567;SDS011;42456;49.956;20.004;2022-12-08T08:44:33;13.57;;;5.90;;
56567;SDS011;42456;49.956;20.004;2022-12-08T08:47:01;13.17;;;6.00;;
56567;SDS011;42456;49.956;20.004;2022-12-08T08:49:27;11.90;;;5.77;;
56567;SDS011;42456;49.956;20.004;2022-12-08T08:51:54;12.97;;;6.33;;
56567;SDS011;42456;49.956;20.004;2022-12-08T08:54:20;10.87;;;5.20;;
56567;SDS011;42456;49.956;20.004;2022-12-08T08:56:46;10.90;;;5.23;;
56567;SDS011;42456;49.956;20.004;2022-12-08T08:59:13;12.30;;;5.77;;
56567;SDS011;42456;49.956;20.004;2022-12-08T09:01:39;12.07;;;6.40;;
56567;SDS011;42456;49.956;20.004;2022-12-08T09:04:05;11.50;;;5.60;;
56567;SDS011;42456;49.956;20.004;2022-12-08T09:06:31;11.67;;;5.47;;
56567;SDS011;42456;49.956;20.004;2022-12-08T09:08:58;11.80;;;5.30;;
56567;SDS011;42456;49.956;20.004;2022-12-08T09:11:24;10.87;;;5.50;;
56567;SDS011;42456;49.956;20.004;2022-12-08T09:13:50;12.30;;;5.80;;
56567;SDS011;42456;49.956;20.004;2022-12-08T09:16:18;11.90;;;6.00;;
56567;SDS011;42456;49.956;20.004;2022-12-08T09:18:46;12.83;;;6.77;;
56567;SDS011;42456;49.956;20.004;2022-12-08T09:21:16;14.10;;;6.07;;
56567;SDS011;42456;49.956;20.004;2022-12-08T09:23:51;11.70;;;6.30;;
56567;SDS011;42456;49.956;20.004;2022-12-08T09:26:17;12.47;;;6.23;;
56567;SDS011;42456;49.956;20.004;2022-12-08T09:28:45;14.63;;;6.63;;
56567;SDS011;42456;49.956;20.004;2022-12-08T09:31:12;13.47;;;6.50;;
56567;SDS011;42456;49.956;20.004;2022-12-08T09:33:39;13.00;;;6.03;;
56567;SDS011;42456;49.956;20.004;2022-12-08T09:36:05;12.57;;;6.00;;
56567;SDS011;42456;49.956;20.004;2022-12-08T09:38:32;13.57;;;6.50;;
56567;SDS011;42456;49.956;20.004;2022-12-08T09:40:59;11.80;;;6.13;;
56567;SDS011;42456;49.956;20.004;2022-12-08T09:46:25;12.93;;;6.33;;
56567;SDS011;42456;49.956;20.004;2022-12-08T09:48:56;14.97;;;6.83;;
56567;SDS011;42456;49.956;20.004;2022-12-08T09:51:25;13.28;;;6.55;;
56567;SDS011;42456;49.956;20.004;2022-12-08T09:53:57;12.83;;;5.40;;
56567;SDS011;42456;49.956;20.004;2022-12-08T09:56:38;11.57;;;5.70;;
56567;SDS011;42456;49.956;20.004;2022-12-08T09:59:07;12.53;;;5.93;;
56567;SDS011;42456;49.956;20.004;2022-12-08T10:01:42;12.47;;;6.23;;
56567;SDS011;42456;49.956;20.004;2022-12-08T10:10:06;11.27;;;6.00;;
56567;SDS011;42456;49.956;20.004;2022-12-08T10:12:44;11.30;;;6.10;;
56567;SDS011;42456;49.956;20.004;2022-12-08T10:18:26;12.03;;;6.37;;
56567;SDS011;42456;49.956;20.004;2022-12-08T10:20:56;12.10;;;5.83;;
56567;SDS011;42456;49.956;20.004;2022-12-08T10:23:28;12.03;;;6.07;;
56567;SDS011;42456;49.956;20.004;2022-12-08T10:26:01;10.20;;;5.30;;
56567;SDS011;42456;49.956;20.004;2022-12-08T10:28:30;11.97;;;5.50;;
56567;SDS011;42456;49.956;20.004;2022-12-08T10:30:58;12.97;;;5.60;;
56567;SDS011;42456;49.956;20.004;2022-12-08T10:33:24;11.37;;;5.73;;
56567;SDS011;42456;49.956;20.004;2022-12-08T10:35:54;13.57;;;5.73;;
56567;SDS011;42456;49.956;20.004;2022-12-08T10:41:05;12.47;;;5.83;;
56567;SDS011;42456;49.956;20.004;2022-12-08T10:43:37;11.97;;;5.60;;
56567;SDS011;42456;49.956;20.004;2022-12-08T10:46:13;12.30;;;5.73;;
56567;SDS011;42456;49.956;20.004;2022-12-08T10:51:35;12.20;;;6.07;;
56567;SDS011;42456;49.956;20.004;2022-12-08T10:54:05;11.47;;;5.77;;
56567;SDS011;42456;49.956;20.004;2022-12-08T10:56:52;12.80;;;6.10;;
56567;SDS011;42456;49.956;20.004;2022-12-08T10:59:20;12.27;;;6.10;;
56567;SDS011;42456;49.956;20.004;2022-12-08T11:01:49;12.10;;;5.87;;
56567;SDS011;42456;49.956;20.004;2022-12-08T11:04:19;12.65;;;6.33;;
56567;SDS011;42456;49.956;20.004;2022-12-08T11:06:49;13.80;;;6.23;;
56567;SDS011;42456;49.956;20.004;2022-12-08T11:11:52;14.23;;;6.73;;
56567;SDS011;42456;49.956;20.004;2022-12-08T11:14:26;15.57;;;6.67;;
56567;SDS011;42456;49.956;20.004;2022-12-08T11:17:06;14.33;;;6.50;;
56567;SDS011;42456;49.956;20.004;2022-12-08T11:22:36;14.13;;;6.33;;
56567;SDS011;42456;49.956;20.004;2022-12-08T11:27:41;13.80;;;6.00;;
56567;SDS011;42456;49.956;20.004;2022-12-08T11:30:15;12.18;;;6.22;;
56567;SDS011;42456;49.956;20.004;2022-12-08T11:32:46;13.83;;;6.43;;
56567;SDS011;42456;49.956;20.004;2022-12-08T11:35:17;12.90;;;5.93;;
56567;SDS011;42456;49.956;20.004;2022-12-08T11:37:47;12.37;;;6.30;;
56567;SDS011;42456;49.956;20.004;2022-12-08T11:45:41;13.20;;;6.70;;
56567;SDS011;42456;49.956;20.004;2022-12-08T11:50:55;13.97;;;6.27;;
56567;SDS011;42456;49.956;20.004;2022-12-08T11:53:34;13.20;;;6.23;;
56567;SDS011;42456;49.956;20.004;2022-12-08T11:56:18;12.70;;;6.33;;
56567;SDS011;42456;49.956;20.004;2022-12-08T11:58:56;13.77;;;6.37;;
56567;SDS011;42456;49.956;20.004;2022-12-08T12:01:27;15.10;;;7.00;;
56567;SDS011;42456;49.956;20.004;2022-12-08T12:06:44;14.77;;;6.17;;
56567;SDS011;42456;49.956;20.004;2022-12-08T12:17:39;13.00;;;6.13;;
56567;SDS011;42456;49.956;20.004;2022-12-08T12:23:05;13.43;;;6.00;;
56567;SDS011;42456;49.956;20.004;2022-12-08T12:25:35;12.18;;;5.78;;
56567;SDS011;42456;49.956;20.004;2022-12-08T12:28:04;13.77;;;6.13;;
56567;SDS011;42456;49.956;20.004;2022-12-08T12:33:31;15.47;;;6.40;;
56567;SDS011;42456;49.956;20.004;2022-12-08T12:36:02;13.80;;;6.33;;
56567;SDS011;42456;49.956;20.004;2022-12-08T12:41:29;15.47;;;7.13;;
56567;SDS011;42456;49.956;20.004;2022-12-08T12:57:20;23.43;;;12.53;;
56567;SDS011;42456;49.956;20.004;2022-12-08T13:02:32;19.47;;;9.87;;
56567;SDS011;42456;49.956;20.004;2022-12-08T13:10:37;15.40;;;7.83;;
56567;SDS011;42456;49.956;20.004;2022-12-08T13:18:33;16.20;;;7.77;;
56567;SDS011;42456;49.956;20.004;2022-12-08T13:23:43;19.07;;;8.93;;
56567;SDS011;42456;49.956;20.004;2022-12-08T13:26:13;16.67;;;7.67;;
56567;SDS011;42456;49.956;20.004;2022-12-08T13:29:04;19.83;;;10.70;;
56567;SDS011;42456;49.956;20.004;2022-12-08T13:37:07;20.83;;;11.20;;
56567;SDS011;42456;49.956;20.004;2022-12-08T13:39:28;21.07;;;11.60;;
56567;SDS011;42456;49.956;20.004;2022-12-08T13:42:20;18.10;;;9.50;;
56567;SDS011;42456;49.956;20.004;2022-12-08T13:44:52;19.13;;;10.13;;
56567;SDS011;42456;49.956;20.004;2022-12-08T13:47:44;17.73;;;9.23;;
56567;SDS011;42456;49.956;20.004;2022-12-08T13:50:37;22.37;;;11.00;;
56567;SDS011;42456;49.956;20.004;2022-12-08T13:53:27;20.17;;;9.53;;
56567;SDS011;42456;49.956;20.004;2022-12-08T13:56:02;23.40;;;12.25;;
56567;SDS011;42456;49.956;20.004;2022-12-08T13:58:31;25.82;;;13.55;;
56567;SDS011;42456;49.956;20.004;2022-12-08T14:08:58;36.67;;;17.17;;
56567;SDS011;42456;49.956;20.004;2022-12-08T14:14:02;33.03;;;15.27;;
56567;SDS011;42456;49.956;20.004;2022-12-08T14:17:04;27.60;;;13.93;;
56567;SDS011;42456;49.956;20.004;2022-12-08T14:19:22;24.70;;;10.87;;
56567;SDS011;42456;49.956;20.004;2022-12-08T14:21:55;22.87;;;10.90;;
56567;SDS011;42456;49.956;20.004;2022-12-08T14:24:25;23.47;;;10.53;;
56567;SDS011;42456;49.956;20.004;2022-12-08T14:26:58;23.65;;;12.00;;
56567;SDS011;42456;49.956;20.004;2022-12-08T14:32:20;29.50;;;14.07;;
56567;SDS011;42456;49.956;20.004;2022-12-08T14:34:49;25.77;;;12.00;;
56567;SDS011;42456;49.956;20.004;2022-12-08T14:37:18;27.47;;;13.50;;
56567;SDS011;42456;49.956;20.004;2022-12-08T14:39:45;21.87;;;11.93;;
56567;SDS011;42456;49.956;20.004;2022-12-08T14:42:19;23.50;;;12.10;;
56567;SDS011;42456;49.956;20.004;2022-12-08T14:44:53;26.23;;;11.77;;
56567;SDS011;42456;49.956;20.004;2022-12-08T14:47:32;24.53;;;12.23;;
56567;SDS011;42456;49.956;20.004;2022-12-08T14:49:59;25.23;;;12.27;;
56567;SDS011;42456;49.956;20.004;2022-12-08T14:52:27;25.80;;;12.60;;
56567;SDS011;42456;49.956;20.004;2022-12-08T14:54:54;25.93;;;13.40;;
56567;SDS011;42456;49.956;20.004;2022-12-08T14:57:33;26.83;;;12.87;;
56567;SDS011;42456;49.956;20.004;2022-12-08T14:59:54;25.60;;;12.03;;
56567;SDS011;42456;49.956;20.004;2022-12-08T15:02:26;24.27;;;12.40;;
56567;SDS011;42456;49.956;20.004;2022-12-08T15:04:56;25.83;;;12.70;;
56567;SDS011;42456;49.956;20.004;2022-12-08T15:07:32;26.33;;;13.07;;
56567;SDS011;42456;49.956;20.004;2022-12-08T15:10:08;23.40;;;12.13;;
56567;SDS011;42456;49.956;20.004;2022-12-08T15:15:47;26.83;;;13.53;;
56567;SDS011;42456;49.956;20.004;2022-12-08T15:18:20;27.30;;;13.93;;
56567;SDS011;42456;49.956;20.004;2022-12-08T15:20:49;26.77;;;14.47;;
56567;SDS011;42456;49.956;20.004;2022-12-08T15:23:19;28.13;;;14.27;;
56567;SDS011;42456;49.956;20.004;2022-12-08T15:25:53;27.73;;;13.67;;
56567;SDS011;42456;49.956;20.004;2022-12-08T15:28:21;28.67;;;14.87;;
56567;SDS011;42456;49.956;20.004;2022-12-08T15:33:16;28.73;;;13.77;;
56567;SDS011;42456;49.956;20.004;2022-12-08T15:35:43;30.07;;;15.27;;
56567;SDS011;42456;49.956;20.004;2022-12-08T15:40:52;32.90;;;16.60;;
56567;SDS011;42456;49.956;20.004;2022-12-08T15:43:22;35.83;;;17.43;;
56567;SDS011;42456;49.956;20.004;2022-12-08T15:45:49;32.42;;;15.25;;
56567;SDS011;42456;49.956;20.004;2022-12-08T15:48:19;30.93;;;13.90;;
56567;SDS011;42456;49.956;20.004;2022-12-08T15:50:49;31.37;;;14.87;;
56567;SDS011;42456;49.956;20.004;2022-12-08T15:53:15;32.50;;;15.73;;
56567;SDS011;42456;49.956;20.004;2022-12-08T15:55:42;36.27;;;18.27;;
56567;SDS011;42456;49.956;20.004;2022-12-08T15:58:17;47.53;;;23.27;;
56567;SDS011;42456;49.956;20.004;2022-12-08T16:00:50;42.47;;;21.57;;
56567;SDS011;42456;49.956;20.004;2022-12-08T16:03:26;38.75;;;18.98;;
56567;SDS011;42456;49.956;20.004;2022-12-08T16:05:54;37.50;;;16.37;;
56567;SDS011;42456;49.956;20.004;2022-12-08T16:08:24;30.40;;;15.10;;
56567;SDS011;42456;49.956;20.004;2022-12-08T16:10:51;29.53;;;15.83;;
56567;SDS011;42456;49.956;20.004;2022-12-08T16:13:19;32.97;;;16.30;;
56567;SDS011;42456;49.956;20.004;2022-12-08T16:16:00;28.47;;;14.53;;
56567;SDS011;42456;49.956;20.004;2022-12-08T16:18:32;32.23;;;15.43;;
56567;SDS011;42456;49.956;20.004;2022-12-08T16:21:01;29.40;;;13.60;;
56567;SDS011;42456;49.956;20.004;2022-12-08T16:23:29;28.97;;;15.60;;
56567;SDS011;42456;49.956;20.004;2022-12-08T16:25:55;29.33;;;16.83;;
56567;SDS011;42456;49.956;20.004;2022-12-08T16:28:23;35.80;;;18.27;;
56567;SDS011;42456;49.956;20.004;2022-12-08T16:30:49;31.53;;;16.70;;
56567;SDS011;42456;49.956;20.004;2022-12-08T16:33:15;31.07;;;15.40;;
56567;SDS011;42456;49.956;20.004;2022-12-08T16:35:42;31.13;;;15.70;;
56567;SDS011;42456;49.956;20.004;2022-12-08T16:38:10;29.83;;;15.40;;
56567;SDS011;42456;49.956;20.004;2022-12-08T16:40:44;28.47;;;13.93;;
56567;SDS011;42456;49.956;20.004;2022-12-08T16:43:25;27.03;;;13.87;;
56567;SDS011;42456;49.956;20.004;2022-12-08T16:45:51;27.33;;;12.83;;
56567;SDS011;42456;49.956;20.004;2022-12-08T16:48:18;26.30;;;14.30;;
56567;SDS011;42456;49.956;20.004;2022-12-08T16:50:46;30.80;;;16.30;;
56567;SDS011;42456;49.956;20.004;2022-12-08T16:53:13;31.03;;;15.53;;
56567;SDS011;42456;49.956;20.004;2022-12-08T16:55:39;38.33;;;18.60;;
56567;SDS011;42456;49.956;20.004;2022-12-08T16:58:09;38.73;;;19.37;;
56567;SDS011;42456;49.956;20.004;2022-12-08T17:00:35;49.23;;;22.67;;
56567;SDS011;42456;49.956;20.004;2022-12-08T17:03:02;43.60;;;20.13;;